Terminal Aerodrome Forecast
Issued by NWS Brownsville, TX

Home | Current Version | Previous Version | Text Only | Print | Product List | Glossary On
Versions: 1 2 3 4 5 6 7 8 9 10 11 12 13 14 15 16 17 18 19 20 21 22
382
FTUS44 KBRO 251732
TAFBRO
TAF
KBRO 251732Z 2518/2618 15016G22KT P6SM SCT025 BKN035
     FM260000 15011KT P6SM SCT030 BKN250
     FM260300 12010KT P6SM BKN015
     FM260600 13008KT 5SM BR BKN012
     FM261200 13007KT 4SM BR BKN007
     FM261500 14015KT P6SM BKN025=

USA.gov is the U.S. government's official web portal to all federal, state and local government web resources and services.